ACA7672 KBOS-CYHZ
Flight info
| Callsign | ACA7672 |
|---|---|
| Flight time | 0h 57m |
| Altitude | 37000 |
| Route | LBSTA8 LBSTA DCT ALLEX FUNDY5 |
| Aircraft | A320/M-SDE3FGHIRWY/LB1 |
Departure
| Time | 2026-05-05 00:06 |
|---|---|
| Airport | Boston Logan International Airport (KBOS) |
Arrival
| Time | 2026-05-05 01:03 |
|---|---|
| Airport | Halifax / Stanfield International Airport (CYHZ) |
| Time | Latitude | Longitude | Altitude | Speed | Heading |
|---|---|---|---|---|---|
| 2026-05-04 23:49 | 42.36218 | -71.02093 | 26 ft | 0 kts | 177° |
| 2026-05-04 23:56 | 42.36250 | -71.02096 | 28 ft | 7 kts | 177° |
| 2026-05-04 23:56 | 42.36292 | -71.02085 | 29 ft | 3 kts | 253° |
| 2026-05-04 23:56 | 42.36292 | -71.02084 | 29 ft | 0 kts | 253° |
| 2026-05-04 23:57 | 42.36277 | -71.02155 | 30 ft | 17 kts | 253° |
| 2026-05-04 23:57 | 42.36196 | -71.02271 | 25 ft | 18 kts | 197° |
| 2026-05-04 23:57 | 42.36119 | -71.02256 | 29 ft | 0 kts | 144° |
| 2026-05-04 23:58 | 42.36111 | -71.02243 | 28 ft | 7 kts | 130° |
| 2026-05-04 23:58 | 42.36055 | -71.02129 | 27 ft | 18 kts | 121° |
| 2026-05-04 23:58 | 42.35983 | -71.01969 | 28 ft | 22 kts | 121° |
| 2026-05-04 23:59 | 42.35913 | -71.01770 | 27 ft | 25 kts | 104° |
| 2026-05-04 23:59 | 42.35888 | -71.01579 | 25 ft | 15 kts | 81° |
| 2026-05-04 23:59 | 42.35978 | -71.01509 | 28 ft | 16 kts | 21° |
| 2026-05-04 23:59 | 42.36094 | -71.01450 | 28 ft | 20 kts | 19° |
| 2026-05-05 00:00 | 42.36266 | -71.01367 | 27 ft | 31 kts | 19° |
| 2026-05-05 00:00 | 42.36333 | -71.01335 | 26 ft | 32 kts | 19° |
| 2026-05-05 00:00 | 42.36709 | -71.01152 | 26 ft | 35 kts | 18° |
| 2026-05-05 00:00 | 42.36865 | -71.01225 | 31 ft | 18 kts | 348° |
| 2026-05-05 00:01 | 42.36951 | -71.01148 | 27 ft | 15 kts | 40° |
| 2026-05-05 00:01 | 42.37065 | -71.01059 | 26 ft | 23 kts | 26° |
| 2026-05-05 00:01 | 42.37217 | -71.00960 | 27 ft | 21 kts | 25° |
| 2026-05-05 00:01 | 42.37247 | -71.00940 | 28 ft | 2 kts | 26° |
| 2026-05-05 00:02 | 42.37273 | -71.00923 | 25 ft | 7 kts | 24° |
| 2026-05-05 00:02 | 42.37369 | -71.00874 | 25 ft | 20 kts | 20° |
| 2026-05-05 00:02 | 42.37507 | -71.00806 | 30 ft | 21 kts | 19° |
| 2026-05-05 00:02 | 42.37646 | -71.00742 | 26 ft | 21 kts | 19° |
| 2026-05-05 00:03 | 42.37776 | -71.00678 | 26 ft | 19 kts | 20° |
| 2026-05-05 00:03 | 42.37833 | -71.00584 | 25 ft | 0 kts | 97° |
| 2026-05-05 00:04 | 42.37814 | -71.00507 | 29 ft | 15 kts | 114° |
| 2026-05-05 00:04 | 42.37740 | -71.00499 | 26 ft | 0 kts | 200° |
| 2026-05-05 00:04 | 42.37739 | -71.00499 | 26 ft | 0 kts | 200° |
| 2026-05-05 00:05 | 42.37735 | -71.00501 | 29 ft | 2 kts | 200° |
| 2026-05-05 00:05 | 42.37598 | -71.00568 | 27 ft | 59 kts | 199° |
| 2026-05-05 00:05 | 42.36975 | -71.00869 | 29 ft | 127 kts | 200° |
| 2026-05-05 00:05 | 42.36368 | -71.01161 | 210 ft | 144 kts | 200° |
| 2026-05-05 00:06 | 42.35431 | -71.01631 | 950 ft | 145 kts | 199° |
| 2026-05-05 00:06 | 42.34402 | -71.01646 | 1719 ft | 158 kts | 175° |
| 2026-05-05 00:06 | 42.33356 | -71.00821 | 2142 ft | 198 kts | 143° |
| 2026-05-05 00:06 | 42.32448 | -70.99266 | 2620 ft | 220 kts | 136° |
| 2026-05-05 00:07 | 42.31628 | -70.97424 | 3266 ft | 239 kts | 115° |
| 2026-05-05 00:07 | 42.31324 | -70.95164 | 4013 ft | 255 kts | 92° |
| 2026-05-05 00:07 | 42.31587 | -70.92678 | 4526 ft | 280 kts | 77° |
| 2026-05-05 00:07 | 42.32022 | -70.90020 | 5239 ft | 294 kts | 77° |
| 2026-05-05 00:08 | 42.32440 | -70.87333 | 6184 ft | 298 kts | 77° |
| 2026-05-05 00:08 | 42.32859 | -70.84565 | 7118 ft | 302 kts | 77° |
| 2026-05-05 00:08 | 42.33279 | -70.81764 | 8087 ft | 305 kts | 77° |
| 2026-05-05 00:08 | 42.33894 | -70.79034 | 9060 ft | 304 kts | 61° |
| 2026-05-05 00:09 | 42.35029 | -70.76649 | 10017 ft | 301 kts | 45° |
| 2026-05-05 00:09 | 42.36608 | -70.74736 | 10545 ft | 314 kts | 28° |
| 2026-05-05 00:09 | 42.38639 | -70.73475 | 10849 ft | 331 kts | 12° |
| 2026-05-05 00:09 | 42.40918 | -70.72561 | 11207 ft | 351 kts | 12° |
| 2026-05-05 00:10 | 42.43293 | -70.71594 | 11861 ft | 359 kts | 13° |
| 2026-05-05 00:10 | 42.45713 | -70.70629 | 12592 ft | 366 kts | 11° |
| 2026-05-05 00:10 | 42.48204 | -70.69781 | 13311 ft | 372 kts | 9° |
| 2026-05-05 00:10 | 42.50720 | -70.69027 | 13971 ft | 378 kts | 8° |
| 2026-05-05 00:11 | 42.53305 | -70.68297 | 14682 ft | 381 kts | 7° |
| 2026-05-05 00:11 | 42.55915 | -70.67562 | 15424 ft | 384 kts | 7° |
| 2026-05-05 00:11 | 42.58539 | -70.66810 | 16164 ft | 387 kts | 7° |
| 2026-05-05 00:11 | 42.61178 | -70.66037 | 16893 ft | 390 kts | 7° |
| 2026-05-05 00:12 | 42.63837 | -70.65246 | 17624 ft | 393 kts | 8° |
| 2026-05-05 00:12 | 42.66514 | -70.64440 | 18317 ft | 396 kts | 8° |
| 2026-05-05 00:12 | 42.69221 | -70.63656 | 18954 ft | 398 kts | 6° |
| 2026-05-05 00:12 | 42.71953 | -70.62984 | 19610 ft | 399 kts | 5° |
| 2026-05-05 00:13 | 42.74706 | -70.62353 | 20248 ft | 403 kts | 7° |
| 2026-05-05 00:13 | 42.77414 | -70.61212 | 20866 ft | 412 kts | 19° |
| 2026-05-05 00:13 | 42.79934 | -70.59291 | 21467 ft | 422 kts | 32° |
| 2026-05-05 00:13 | 42.82131 | -70.56574 | 22040 ft | 431 kts | 45° |
| 2026-05-05 00:14 | 42.83869 | -70.53275 | 22610 ft | 438 kts | 54° |
| 2026-05-05 00:14 | 42.85516 | -70.49758 | 23180 ft | 440 kts | 54° |
| 2026-05-05 00:14 | 42.87173 | -70.46236 | 23674 ft | 442 kts | 53° |
| 2026-05-05 00:14 | 42.88844 | -70.42698 | 24130 ft | 445 kts | 53° |
| 2026-05-05 00:15 | 42.90527 | -70.39144 | 24589 ft | 447 kts | 53° |
| 2026-05-05 00:15 | 42.92215 | -70.35572 | 25040 ft | 449 kts | 53° |
| 2026-05-05 00:15 | 42.93914 | -70.31969 | 25463 ft | 452 kts | 52° |
| 2026-05-05 00:15 | 42.95617 | -70.28357 | 25889 ft | 454 kts | 52° |
| 2026-05-05 00:16 | 42.97328 | -70.24722 | 26312 ft | 456 kts | 52° |
| 2026-05-05 00:16 | 42.99025 | -70.21112 | 26705 ft | 458 kts | 52° |
| 2026-05-05 00:16 | 43.00744 | -70.17442 | 27119 ft | 460 kts | 52° |
| 2026-05-05 00:16 | 43.02469 | -70.13751 | 27514 ft | 462 kts | 52° |
| 2026-05-05 00:17 | 43.04208 | -70.10022 | 27895 ft | 464 kts | 52° |
| 2026-05-05 00:17 | 43.05951 | -70.06288 | 28277 ft | 465 kts | 52° |
| 2026-05-05 00:17 | 43.07697 | -70.02549 | 28624 ft | 467 kts | 51° |
| 2026-05-05 00:17 | 43.09446 | -69.98797 | 28965 ft | 468 kts | 51° |
| 2026-05-05 00:18 | 43.11176 | -69.95078 | 29283 ft | 470 kts | 51° |
| 2026-05-05 00:18 | 43.12956 | -69.91248 | 29591 ft | 471 kts | 51° |
| 2026-05-05 00:18 | 43.14691 | -69.87509 | 29963 ft | 471 kts | 51° |
| 2026-05-05 00:18 | 43.16439 | -69.83728 | 30331 ft | 468 kts | 51° |
| 2026-05-05 00:19 | 43.18177 | -69.79962 | 30705 ft | 466 kts | 51° |
| 2026-05-05 00:19 | 43.19911 | -69.76201 | 31082 ft | 464 kts | 51° |
| 2026-05-05 00:19 | 43.21641 | -69.72451 | 31465 ft | 462 kts | 51° |
| 2026-05-05 00:19 | 43.23355 | -69.68737 | 31841 ft | 460 kts | 50° |
| 2026-05-05 00:20 | 43.25064 | -69.65035 | 32217 ft | 458 kts | 50° |
| 2026-05-05 00:20 | 43.26742 | -69.61395 | 32594 ft | 456 kts | 50° |
| 2026-05-05 00:20 | 43.28438 | -69.57710 | 32962 ft | 455 kts | 50° |
| 2026-05-05 00:20 | 43.30124 | -69.54041 | 33342 ft | 453 kts | 50° |
| 2026-05-05 00:21 | 43.31801 | -69.50381 | 33718 ft | 452 kts | 50° |
| 2026-05-05 00:21 | 43.33475 | -69.46715 | 34045 ft | 451 kts | 50° |
| 2026-05-05 00:21 | 43.35139 | -69.43068 | 34291 ft | 452 kts | 50° |
| 2026-05-05 00:21 | 43.36793 | -69.39449 | 34503 ft | 454 kts | 51° |
| 2026-05-05 00:22 | 43.38475 | -69.35764 | 34727 ft | 456 kts | 51° |
| 2026-05-05 00:22 | 43.40163 | -69.32064 | 34941 ft | 458 kts | 51° |
| 2026-05-05 00:22 | 43.41858 | -69.28346 | 35153 ft | 460 kts | 51° |
| 2026-05-05 00:22 | 43.43557 | -69.24613 | 35362 ft | 461 kts | 51° |
| 2026-05-05 00:23 | 43.45266 | -69.20854 | 35567 ft | 463 kts | 52° |
| 2026-05-05 00:23 | 43.46981 | -69.17073 | 35769 ft | 465 kts | 52° |
| 2026-05-05 00:23 | 43.48694 | -69.13284 | 35967 ft | 467 kts | 52° |
| 2026-05-05 00:23 | 43.50412 | -69.09470 | 36162 ft | 469 kts | 52° |
| 2026-05-05 00:24 | 43.52133 | -69.05651 | 36348 ft | 470 kts | 53° |
| 2026-05-05 00:24 | 43.53838 | -69.01867 | 36535 ft | 472 kts | 53° |
| 2026-05-05 00:24 | 43.55572 | -68.98018 | 36719 ft | 473 kts | 53° |
| 2026-05-05 00:24 | 43.57314 | -68.94148 | 36847 ft | 476 kts | 53° |
| 2026-05-05 00:25 | 43.59062 | -68.90256 | 36867 ft | 477 kts | 53° |
| 2026-05-05 00:25 | 43.62554 | -68.82455 | 36861 ft | 478 kts | 53° |
| 2026-05-05 00:26 | 43.66045 | -68.74638 | 36863 ft | 478 kts | 53° |
| 2026-05-05 00:26 | 43.69519 | -68.66853 | 36864 ft | 479 kts | 53° |
| 2026-05-05 00:27 | 43.73012 | -68.59000 | 36867 ft | 479 kts | 53° |
| 2026-05-05 00:27 | 43.76496 | -68.51132 | 36872 ft | 479 kts | 53° |
| 2026-05-05 00:28 | 43.79971 | -68.43253 | 36873 ft | 480 kts | 54° |
| 2026-05-05 00:28 | 43.83478 | -68.35318 | 36866 ft | 488 kts | 54° |
| 2026-05-05 00:29 | 43.87041 | -68.27238 | 36868 ft | 493 kts | 54° |
| 2026-05-05 00:29 | 43.90607 | -68.19107 | 36868 ft | 494 kts | 54° |
| 2026-05-05 00:30 | 43.94147 | -68.10999 | 36871 ft | 495 kts | 54° |
| 2026-05-05 00:30 | 43.97711 | -68.02810 | 36875 ft | 495 kts | 54° |
| 2026-05-05 00:31 | 44.01277 | -67.94595 | 36880 ft | 496 kts | 54° |
| 2026-05-05 00:31 | 44.04849 | -67.86363 | 36882 ft | 497 kts | 54° |
| 2026-05-05 00:32 | 44.08404 | -67.78154 | 36883 ft | 498 kts | 54° |
| 2026-05-05 00:32 | 44.11970 | -67.69892 | 36881 ft | 498 kts | 54° |
| 2026-05-05 00:33 | 44.15532 | -67.61587 | 36883 ft | 499 kts | 55° |
| 2026-05-05 00:33 | 44.19091 | -67.53270 | 36885 ft | 500 kts | 55° |
| 2026-05-05 00:34 | 44.22633 | -67.44974 | 36881 ft | 500 kts | 55° |
| 2026-05-05 00:34 | 44.26192 | -67.36621 | 36880 ft | 501 kts | 55° |
| 2026-05-05 00:35 | 44.29765 | -67.28224 | 36881 ft | 502 kts | 55° |
| 2026-05-05 00:35 | 44.33328 | -67.19827 | 36879 ft | 503 kts | 55° |
| 2026-05-05 00:36 | 44.36866 | -67.11451 | 36876 ft | 503 kts | 56° |
| 2026-05-05 00:36 | 44.40410 | -67.02985 | 36872 ft | 505 kts | 58° |
| 2026-05-05 00:36 | 44.41829 | -66.98478 | 36872 ft | 510 kts | 69° |
| 2026-05-05 00:37 | 44.42766 | -66.93680 | 36874 ft | 512 kts | 74° |
| 2026-05-05 00:37 | 44.44421 | -66.83982 | 36861 ft | 513 kts | 74° |
| 2026-05-05 00:38 | 44.46098 | -66.74268 | 36860 ft | 514 kts | 74° |
| 2026-05-05 00:38 | 44.47767 | -66.64563 | 36843 ft | 507 kts | 74° |
| 2026-05-05 00:39 | 44.49391 | -66.55002 | 36840 ft | 503 kts | 75° |
| 2026-05-05 00:39 | 44.50987 | -66.45504 | 36842 ft | 503 kts | 75° |
| 2026-05-05 00:40 | 44.52583 | -66.35946 | 36841 ft | 503 kts | 75° |
| 2026-05-05 00:40 | 44.54184 | -66.26368 | 36840 ft | 504 kts | 75° |
| 2026-05-05 00:41 | 44.55760 | -66.16854 | 36844 ft | 504 kts | 75° |
| 2026-05-05 00:41 | 44.57342 | -66.07258 | 36850 ft | 505 kts | 75° |
| 2026-05-05 00:42 | 44.58918 | -65.97690 | 36863 ft | 505 kts | 75° |
| 2026-05-05 00:42 | 44.60491 | -65.88058 | 36853 ft | 505 kts | 76° |
| 2026-05-05 00:43 | 44.62052 | -65.78431 | 36863 ft | 505 kts | 76° |
| 2026-05-05 00:43 | 44.63591 | -65.68848 | 36693 ft | 506 kts | 76° |
| 2026-05-05 00:43 | 44.64360 | -65.64032 | 36442 ft | 506 kts | 76° |
| 2026-05-05 00:44 | 44.65130 | -65.59211 | 35997 ft | 507 kts | 76° |
| 2026-05-05 00:44 | 44.65912 | -65.54339 | 34941 ft | 515 kts | 75° |
| 2026-05-05 00:44 | 44.66701 | -65.49393 | 33992 ft | 520 kts | 75° |
| 2026-05-05 00:44 | 44.67494 | -65.44403 | 32772 ft | 525 kts | 74° |
| 2026-05-05 00:45 | 44.68281 | -65.39436 | 31596 ft | 517 kts | 72° |
| 2026-05-05 00:45 | 44.69052 | -65.34561 | 30883 ft | 515 kts | 71° |
| 2026-05-05 00:45 | 44.69822 | -65.29668 | 30263 ft | 512 kts | 70° |
| 2026-05-05 00:45 | 44.70589 | -65.24784 | 29681 ft | 510 kts | 70° |
| 2026-05-05 00:46 | 44.71357 | -65.19896 | 29034 ft | 511 kts | 70° |
| 2026-05-05 00:46 | 44.72123 | -65.15008 | 28413 ft | 514 kts | 70° |
| 2026-05-05 00:46 | 44.72891 | -65.10088 | 27806 ft | 516 kts | 71° |
| 2026-05-05 00:46 | 44.73657 | -65.05149 | 27204 ft | 516 kts | 71° |
| 2026-05-05 00:47 | 44.74414 | -65.00230 | 26471 ft | 513 kts | 71° |
| 2026-05-05 00:47 | 44.75163 | -64.95341 | 25821 ft | 507 kts | 72° |
| 2026-05-05 00:47 | 44.75883 | -64.90594 | 25189 ft | 490 kts | 72° |
| 2026-05-05 00:47 | 44.76585 | -64.85976 | 24584 ft | 486 kts | 72° |
| 2026-05-05 00:48 | 44.77292 | -64.81335 | 23982 ft | 483 kts | 72° |
| 2026-05-05 00:48 | 44.77992 | -64.76735 | 23387 ft | 480 kts | 72° |
| 2026-05-05 00:48 | 44.78689 | -64.72146 | 22684 ft | 478 kts | 72° |
| 2026-05-05 00:48 | 44.79384 | -64.67578 | 21989 ft | 476 kts | 73° |
| 2026-05-05 00:49 | 44.80083 | -64.62986 | 21243 ft | 480 kts | 73° |
| 2026-05-05 00:49 | 44.80778 | -64.58397 | 20507 ft | 479 kts | 73° |
| 2026-05-05 00:49 | 44.81470 | -64.53808 | 19789 ft | 478 kts | 74° |
| 2026-05-05 00:49 | 44.82250 | -64.49269 | 19092 ft | 473 kts | 67° |
| 2026-05-05 00:50 | 44.83312 | -64.44950 | 18612 ft | 455 kts | 66° |
| 2026-05-05 00:50 | 44.84324 | -64.40834 | 17798 ft | 441 kts | 66° |
| 2026-05-05 00:50 | 44.85343 | -64.36710 | 16876 ft | 450 kts | 66° |
| 2026-05-05 00:50 | 44.86380 | -64.32536 | 16346 ft | 451 kts | 66° |
| 2026-05-05 00:51 | 44.87415 | -64.28372 | 15824 ft | 448 kts | 67° |
| 2026-05-05 00:51 | 44.88425 | -64.24300 | 15321 ft | 446 kts | 67° |
| 2026-05-05 00:51 | 44.89442 | -64.20180 | 14818 ft | 442 kts | 67° |
| 2026-05-05 00:51 | 44.90444 | -64.16106 | 14321 ft | 437 kts | 68° |
| 2026-05-05 00:52 | 44.91433 | -64.12072 | 13827 ft | 433 kts | 68° |
| 2026-05-05 00:52 | 44.92113 | -64.09274 | 13482 ft | 430 kts | 68° |
| 2026-05-05 00:52 | 44.93083 | -64.05297 | 12937 ft | 425 kts | 68° |
| 2026-05-05 00:53 | 44.94041 | -64.01375 | 12371 ft | 421 kts | 68° |
| 2026-05-05 00:53 | 44.94995 | -63.97478 | 11792 ft | 417 kts | 68° |
| 2026-05-05 00:53 | 44.95936 | -63.93630 | 11221 ft | 409 kts | 68° |
| 2026-05-05 00:53 | 44.96828 | -63.89970 | 10667 ft | 389 kts | 68° |
| 2026-05-05 00:54 | 44.97686 | -63.86418 | 10118 ft | 372 kts | 68° |
| 2026-05-05 00:54 | 44.98505 | -63.83016 | 9581 ft | 358 kts | 68° |
| 2026-05-05 00:54 | 44.99292 | -63.79746 | 9129 ft | 341 kts | 68° |
| 2026-05-05 00:54 | 45.00046 | -63.76633 | 8996 ft | 332 kts | 68° |
| 2026-05-05 00:55 | 45.00793 | -63.73557 | 8582 ft | 329 kts | 68° |
| 2026-05-05 00:55 | 45.01284 | -63.71534 | 8223 ft | 328 kts | 68° |
| 2026-05-05 00:55 | 45.02267 | -63.67474 | 7634 ft | 327 kts | 68° |
| 2026-05-05 00:55 | 45.03008 | -63.64407 | 7120 ft | 328 kts | 68° |
| 2026-05-05 00:56 | 45.03490 | -63.62398 | 6921 ft | 323 kts | 68° |
| 2026-05-05 00:56 | 45.04209 | -63.59397 | 6510 ft | 322 kts | 68° |
| 2026-05-05 00:56 | 45.04921 | -63.56408 | 6006 ft | 318 kts | 68° |
| 2026-05-05 00:56 | 45.05620 | -63.53471 | 5534 ft | 307 kts | 68° |
| 2026-05-05 00:57 | 45.06274 | -63.50699 | 5384 ft | 285 kts | 69° |
| 2026-05-05 00:57 | 45.06636 | -63.48030 | 5265 ft | 273 kts | 89° |
| 2026-05-05 00:57 | 45.06385 | -63.45445 | 5089 ft | 262 kts | 111° |
| 2026-05-05 00:57 | 45.05588 | -63.43150 | 4440 ft | 260 kts | 132° |
| 2026-05-05 00:58 | 45.04532 | -63.41077 | 3887 ft | 263 kts | 132° |
| 2026-05-05 00:58 | 45.03373 | -63.39160 | 3546 ft | 241 kts | 154° |
| 2026-05-05 00:58 | 45.01931 | -63.38424 | 3495 ft | 209 kts | 190° |
| 2026-05-05 00:58 | 45.00604 | -63.38840 | 3278 ft | 187 kts | 221° |
| 2026-05-05 00:59 | 44.99584 | -63.39826 | 3069 ft | 172 kts | 225° |
| 2026-05-05 00:59 | 44.98656 | -63.40743 | 2883 ft | 157 kts | 225° |
| 2026-05-05 00:59 | 44.98359 | -63.41036 | 2810 ft | 152 kts | 226° |
| 2026-05-05 00:59 | 44.98354 | -63.41041 | 2808 ft | 152 kts | 226° |
| 2026-05-05 01:00 | 44.97671 | -63.41717 | 2830 ft | 139 kts | 227° |
| 2026-05-05 01:00 | 44.96878 | -63.42511 | 2520 ft | 140 kts | 226° |
| 2026-05-05 01:00 | 44.96084 | -63.43300 | 2275 ft | 138 kts | 226° |
| 2026-05-05 01:00 | 44.95352 | -63.44021 | 2085 ft | 124 kts | 225° |
| 2026-05-05 01:01 | 44.94655 | -63.44714 | 1906 ft | 121 kts | 226° |
| 2026-05-05 01:01 | 44.93977 | -63.45387 | 1741 ft | 118 kts | 225° |
| 2026-05-05 01:01 | 44.93307 | -63.46052 | 1582 ft | 118 kts | 223° |
| 2026-05-05 01:01 | 44.92634 | -63.46720 | 1415 ft | 119 kts | 224° |
| 2026-05-05 01:02 | 44.91959 | -63.47389 | 1246 ft | 119 kts | 221° |
| 2026-05-05 01:02 | 44.91266 | -63.48075 | 1086 ft | 122 kts | 220° |
| 2026-05-05 01:02 | 44.90566 | -63.48771 | 924 ft | 122 kts | 217° |
| 2026-05-05 01:02 | 44.89846 | -63.49473 | 745 ft | 129 kts | 216° |
| 2026-05-05 01:03 | 44.89110 | -63.50199 | 588 ft | 129 kts | 218° |
| 2026-05-05 01:03 | 44.88405 | -63.50903 | 454 ft | 116 kts | 217° |
| 2026-05-05 01:03 | 44.87891 | -63.51421 | 450 ft | 66 kts | 214° |
| 2026-05-05 01:03 | 44.87593 | -63.51716 | 451 ft | 39 kts | 214° |
| 2026-05-05 01:04 | 44.87455 | -63.51915 | 449 ft | 28 kts | 250° |
| 2026-05-05 01:04 | 44.87566 | -63.52067 | 452 ft | 14 kts | 33° |
| 2026-05-05 01:04 | 44.87657 | -63.51977 | 451 ft | 18 kts | 35° |
| 2026-05-05 01:05 | 44.87768 | -63.51867 | 451 ft | 22 kts | 34° |
| 2026-05-05 01:05 | 44.87902 | -63.51735 | 452 ft | 26 kts | 35° |
| 2026-05-05 01:05 | 44.88059 | -63.51580 | 452 ft | 30 kts | 34° |
| 2026-05-05 01:05 | 44.88235 | -63.51405 | 452 ft | 32 kts | 34° |
| 2026-05-05 01:06 | 44.88400 | -63.51233 | 452 ft | 22 kts | 40° |
| 2026-05-05 01:06 | 44.88549 | -63.51225 | 452 ft | 17 kts | 349° |
| 2026-05-05 01:06 | 44.88662 | -63.51256 | 452 ft | 15 kts | 350° |
| 2026-05-05 01:06 | 44.88689 | -63.51306 | 452 ft | 8 kts | 268° |
| 2026-05-05 01:07 | 44.88679 | -63.51396 | 449 ft | 0 kts | 259° |
| 2026-05-05 01:07 | 44.88678 | -63.51397 | 450 ft | 0 kts | 259° |